In Rescue
 
Open Full Screen Window  High Contrast Mode
Wind Gusting 00 knots
05
November 29, 2022 8:22 AM CST
Present Weather: Light Snow
Weather Information
Wind Direction
  360 °
Wind Speed
  05 kt (6 mph)
Wind Gust
  00 kt (0 mph)
Altimeter
29.71 in
Visibility
1/2 SM
Temperature
-02° C
28° F
Dewpoint
-03° C
27° F
Humidity
93%
1hr Rain Fall
00.01 in.
24hr Rain Fall
00.02 in.
Sky Condition
Overcast @ 500 ft
IFR

METAR KSGS 291422Z AUTO 36005KT 1/2SM -SN OVC005 M02/M03 A2971 RMK AO2 T10201028 P0001

FAA Disclaimer: The data displayed is for advisory purposes only and is not to be used for flight planning or operations.